sensor_id;sensor_type;location;lat;lon;timestamp;pressure;altitude;pressure_sealevel;temperature;humidity
63903;BME280;50072;50.678;13.938;2023-08-08T00:02:19;99334.41;;;11.66;100.00
63903;BME280;50072;50.678;13.938;2023-08-08T00:04:51;99324.72;;;11.62;100.00
63903;BME280;50072;50.678;13.938;2023-08-08T00:07:16;99331.13;;;11.58;100.00
63903;BME280;50072;50.678;13.938;2023-08-08T00:09:46;99326.38;;;11.66;100.00
63903;BME280;50072;50.678;13.938;2023-08-08T00:12:19;99321.56;;;11.76;100.00
63903;BME280;50072;50.678;13.938;2023-08-08T00:14:45;99325.59;;;11.88;100.00
63903;BME280;50072;50.678;13.938;2023-08-08T00:17:19;99327.72;;;12.05;100.00
63903;BME280;50072;50.678;13.938;2023-08-08T00:19:46;99331.09;;;12.10;100.00
63903;BME280;50072;50.678;13.938;2023-08-08T00:22:12;99327.38;;;12.14;100.00
63903;BME280;50072;50.678;13.938;2023-08-08T00:24:38;99326.38;;;12.17;100.00
63903;BME280;50072;50.678;13.938;2023-08-08T00:27:05;99329.00;;;12.18;100.00
63903;BME280;50072;50.678;13.938;2023-08-08T00:29:30;99327.88;;;12.24;100.00
63903;BME280;50072;50.678;13.938;2023-08-08T00:31:57;99326.78;;;12.30;100.00
63903;BME280;50072;50.678;13.938;2023-08-08T00:34:24;99329.59;;;12.26;100.00
63903;BME280;50072;50.678;13.938;2023-08-08T00:36:49;99333.03;;;12.30;100.00
63903;BME280;50072;50.678;13.938;2023-08-08T00:39:15;99336.66;;;12.29;100.00
63903;BME280;50072;50.678;13.938;2023-08-08T00:41:41;99326.78;;;12.30;100.00
63903;BME280;50072;50.678;13.938;2023-08-08T00:44:07;99335.88;;;12.25;100.00
63903;BME280;50072;50.678;13.938;2023-08-08T00:46:33;99325.31;;;12.21;100.00
63903;BME280;50072;50.678;13.938;2023-08-08T00:48:59;99326.16;;;12.23;100.00
63903;BME280;50072;50.678;13.938;2023-08-08T00:51:25;99320.09;;;12.18;100.00
63903;BME280;50072;50.678;13.938;2023-08-08T00:53:51;99314.91;;;12.13;100.00
63903;BME280;50072;50.678;13.938;2023-08-08T00:56:17;99325.16;;;12.02;100.00
63903;BME280;50072;50.678;13.938;2023-08-08T00:58:44;99329.00;;;11.93;100.00
63903;BME280;50072;50.678;13.938;2023-08-08T01:01:17;99330.31;;;11.81;100.00
63903;BME280;50072;50.678;13.938;2023-08-08T01:03:43;99333.25;;;11.73;100.00
63903;BME280;50072;50.678;13.938;2023-08-08T01:08:48;99335.22;;;11.43;100.00
63903;BME280;50072;50.678;13.938;2023-08-08T01:11:16;99340.09;;;11.30;100.00
63903;BME280;50072;50.678;13.938;2023-08-08T01:13:44;99337.25;;;11.35;100.00
63903;BME280;50072;50.678;13.938;2023-08-08T01:16:12;99330.38;;;11.28;100.00
63903;BME280;50072;50.678;13.938;2023-08-08T01:18:40;99330.75;;;11.15;100.00
63903;BME280;50072;50.678;13.938;2023-08-08T01:21:07;99332.56;;;11.15;100.00
63903;BME280;50072;50.678;13.938;2023-08-08T01:26:08;99322.19;;;10.76;100.00
63903;BME280;50072;50.678;13.938;2023-08-08T01:28:34;99328.25;;;10.82;100.00
63903;BME280;50072;50.678;13.938;2023-08-08T01:31:00;99323.00;;;10.79;100.00
63903;BME280;50072;50.678;13.938;2023-08-08T01:33:26;99308.78;;;10.77;100.00
63903;BME280;50072;50.678;13.938;2023-08-08T01:36:18;99307.25;;;10.68;100.00
63903;BME280;50072;50.678;13.938;2023-08-08T01:38:47;99309.34;;;10.59;100.00
63903;BME280;50072;50.678;13.938;2023-08-08T01:41:15;99320.91;;;10.61;100.00
63903;BME280;50072;50.678;13.938;2023-08-08T01:43:41;99312.97;;;10.58;100.00
63903;BME280;50072;50.678;13.938;2023-08-08T01:46:07;99316.50;;;10.58;100.00
63903;BME280;50072;50.678;13.938;2023-08-08T01:48:34;99305.97;;;10.53;100.00
63903;BME280;50072;50.678;13.938;2023-08-08T01:51:01;99315.31;;;10.39;100.00
63903;BME280;50072;50.678;13.938;2023-08-08T01:53:27;99297.66;;;10.31;100.00
63903;BME280;50072;50.678;13.938;2023-08-08T01:55:53;99306.56;;;10.32;100.00
63903;BME280;50072;50.678;13.938;2023-08-08T01:58:19;99310.91;;;10.38;100.00
63903;BME280;50072;50.678;13.938;2023-08-08T02:00:45;99310.84;;;10.39;100.00
63903;BME280;50072;50.678;13.938;2023-08-08T02:03:12;99305.63;;;10.34;100.00
63903;BME280;50072;50.678;13.938;2023-08-08T02:05:38;99312.00;;;10.29;100.00
63903;BME280;50072;50.678;13.938;2023-08-08T02:08:04;99313.81;;;10.28;100.00
63903;BME280;50072;50.678;13.938;2023-08-08T02:10:30;99313.66;;;10.33;100.00
63903;BME280;50072;50.678;13.938;2023-08-08T02:12:57;99325.25;;;10.35;100.00
63903;BME280;50072;50.678;13.938;2023-08-08T02:15:22;99322.63;;;10.32;100.00
63903;BME280;50072;50.678;13.938;2023-08-08T02:17:50;99318.16;;;10.32;100.00
63903;BME280;50072;50.678;13.938;2023-08-08T02:20:15;99318.09;;;10.35;100.00
63903;BME280;50072;50.678;13.938;2023-08-08T02:22:41;99319.66;;;10.43;100.00
63903;BME280;50072;50.678;13.938;2023-08-08T02:25:07;99313.28;;;10.47;100.00
63903;BME280;50072;50.678;13.938;2023-08-08T02:27:34;99321.91;;;10.57;100.00
63903;BME280;50072;50.678;13.938;2023-08-08T02:30:00;99322.69;;;10.60;100.00
63903;BME280;50072;50.678;13.938;2023-08-08T02:32:25;99316.25;;;10.66;100.00
63903;BME280;50072;50.678;13.938;2023-08-08T02:34:51;99313.69;;;10.63;100.00
63903;BME280;50072;50.678;13.938;2023-08-08T02:37:17;99320.16;;;10.56;100.00
63903;BME280;50072;50.678;13.938;2023-08-08T02:39:44;99326.44;;;10.55;100.00
63903;BME280;50072;50.678;13.938;2023-08-08T02:42:10;99320.69;;;10.67;100.00
63903;BME280;50072;50.678;13.938;2023-08-08T02:44:36;99316.50;;;10.58;100.00
63903;BME280;50072;50.678;13.938;2023-08-08T02:47:02;99307.63;;;10.58;100.00
63903;BME280;50072;50.678;13.938;2023-08-08T02:49:28;99312.13;;;10.56;100.00
63903;BME280;50072;50.678;13.938;2023-08-08T02:51:54;99313.06;;;10.55;100.00
63903;BME280;50072;50.678;13.938;2023-08-08T02:54:20;99323.78;;;10.55;100.00
63903;BME280;50072;50.678;13.938;2023-08-08T02:56:46;99316.91;;;10.44;100.00
63903;BME280;50072;50.678;13.938;2023-08-08T02:59:12;99325.59;;;10.52;100.00
63903;BME280;50072;50.678;13.938;2023-08-08T03:01:49;99319.19;;;10.58;100.00
63903;BME280;50072;50.678;13.938;2023-08-08T03:04:21;99327.25;;;10.57;100.00
63903;BME280;50072;50.678;13.938;2023-08-08T03:06:47;99326.50;;;10.51;100.00
63903;BME280;50072;50.678;13.938;2023-08-08T03:09:12;99324.84;;;10.49;100.00
63903;BME280;50072;50.678;13.938;2023-08-08T03:11:39;99325.41;;;10.59;100.00
63903;BME280;50072;50.678;13.938;2023-08-08T03:14:07;99329.47;;;10.72;100.00
63903;BME280;50072;50.678;13.938;2023-08-08T03:16:36;99316.00;;;10.75;100.00
63903;BME280;50072;50.678;13.938;2023-08-08T03:19:03;99321.19;;;10.80;100.00
63903;BME280;50072;50.678;13.938;2023-08-08T03:21:30;99328.94;;;10.89;100.00
63903;BME280;50072;50.678;13.938;2023-08-08T03:23:56;99326.38;;;10.84;100.00
63903;BME280;50072;50.678;13.938;2023-08-08T03:26:23;99330.00;;;10.83;100.00
63903;BME280;50072;50.678;13.938;2023-08-08T03:28:49;99327.28;;;10.85;100.00
63903;BME280;50072;50.678;13.938;2023-08-08T03:31:20;99336.81;;;10.94;100.00
63903;BME280;50072;50.678;13.938;2023-08-08T03:33:47;99330.50;;;10.96;100.00
63903;BME280;50072;50.678;13.938;2023-08-08T03:36:15;99324.16;;;10.99;100.00
63903;BME280;50072;50.678;13.938;2023-08-08T03:38:41;99320.59;;;10.98;100.00
63903;BME280;50072;50.678;13.938;2023-08-08T03:41:14;99327.91;;;10.93;100.00
63903;BME280;50072;50.678;13.938;2023-08-08T03:43:47;99317.09;;;10.96;100.00
63903;BME280;50072;50.678;13.938;2023-08-08T03:46:14;99322.78;;;10.85;100.00
63903;BME280;50072;50.678;13.938;2023-08-08T03:48:39;99314.31;;;10.99;100.00
63903;BME280;50072;50.678;13.938;2023-08-08T03:51:05;99324.94;;;11.02;100.00
63903;BME280;50072;50.678;13.938;2023-08-08T03:53:33;99322.03;;;11.10;100.00
63903;BME280;50072;50.678;13.938;2023-08-08T03:55:59;99326.13;;;11.20;100.00
63903;BME280;50072;50.678;13.938;2023-08-08T03:58:25;99331.56;;;11.19;100.00
63903;BME280;50072;50.678;13.938;2023-08-08T04:00:52;99335.84;;;11.25;100.00
63903;BME280;50072;50.678;13.938;2023-08-08T04:03:18;99340.75;;;11.37;100.00
63903;BME280;50072;50.678;13.938;2023-08-08T04:05:44;99338.59;;;11.48;100.00
63903;BME280;50072;50.678;13.938;2023-08-08T04:08:16;99342.00;;;11.53;100.00
63903;BME280;50072;50.678;13.938;2023-08-08T04:10:43;99339.22;;;11.56;100.00
63903;BME280;50072;50.678;13.938;2023-08-08T04:13:12;99343.31;;;11.67;100.00
63903;BME280;50072;50.678;13.938;2023-08-08T04:15:39;99343.72;;;11.81;100.00
63903;BME280;50072;50.678;13.938;2023-08-08T04:18:05;99346.94;;;11.91;100.00
63903;BME280;50072;50.678;13.938;2023-08-08T04:20:33;99335.88;;;12.02;100.00
63903;BME280;50072;50.678;13.938;2023-08-08T04:23:00;99332.09;;;12.07;100.00
63903;BME280;50072;50.678;13.938;2023-08-08T04:25:27;99342.69;;;12.11;100.00
63903;BME280;50072;50.678;13.938;2023-08-08T04:27:53;99339.84;;;12.15;100.00
63903;BME280;50072;50.678;13.938;2023-08-08T04:30:19;99328.31;;;12.13;100.00
63903;BME280;50072;50.678;13.938;2023-08-08T04:32:45;99337.75;;;12.23;100.00
63903;BME280;50072;50.678;13.938;2023-08-08T04:35:11;99324.75;;;12.36;100.00
63903;BME280;50072;50.678;13.938;2023-08-08T04:37:37;99324.56;;;12.41;100.00
63903;BME280;50072;50.678;13.938;2023-08-08T04:40:03;99334.13;;;12.48;100.00
63903;BME280;50072;50.678;13.938;2023-08-08T04:42:29;99325.03;;;12.52;100.00
63903;BME280;50072;50.678;13.938;2023-08-08T04:44:56;99336.72;;;12.51;100.00
63903;BME280;50072;50.678;13.938;2023-08-08T04:47:21;99324.91;;;12.55;100.00
63903;BME280;50072;50.678;13.938;2023-08-08T04:49:47;99330.06;;;12.62;100.00
63903;BME280;50072;50.678;13.938;2023-08-08T04:52:13;99328.88;;;12.69;100.00
63903;BME280;50072;50.678;13.938;2023-08-08T04:54:39;99339.63;;;12.69;100.00
63903;BME280;50072;50.678;13.938;2023-08-08T04:57:05;99325.94;;;12.75;100.00
63903;BME280;50072;50.678;13.938;2023-08-08T04:59:32;99342.50;;;12.64;100.00
63903;BME280;50072;50.678;13.938;2023-08-08T05:01:57;99336.22;;;12.64;100.00
63903;BME280;50072;50.678;13.938;2023-08-08T05:04:23;99344.06;;;12.70;100.00
63903;BME280;50072;50.678;13.938;2023-08-08T05:06:49;99335.69;;;12.77;100.00
63903;BME280;50072;50.678;13.938;2023-08-08T05:09:15;99350.25;;;12.72;100.00
63903;BME280;50072;50.678;13.938;2023-08-08T05:11:41;99348.31;;;12.75;100.00
63903;BME280;50072;50.678;13.938;2023-08-08T05:14:07;99343.22;;;12.91;100.00
63903;BME280;50072;50.678;13.938;2023-08-08T05:16:33;99358.50;;;12.89;100.00
63903;BME280;50072;50.678;13.938;2023-08-08T05:18:58;99363.19;;;12.84;100.00
63903;BME280;50072;50.678;13.938;2023-08-08T05:21:24;99352.66;;;13.02;100.00
63903;BME280;50072;50.678;13.938;2023-08-08T05:23:50;99367.66;;;13.07;100.00
63903;BME280;50072;50.678;13.938;2023-08-08T05:26:16;99363.19;;;13.06;100.00
63903;BME280;50072;50.678;13.938;2023-08-08T05:28:42;99362.41;;;13.04;100.00
63903;BME280;50072;50.678;13.938;2023-08-08T05:31:07;99361.44;;;13.05;100.00
63903;BME280;50072;50.678;13.938;2023-08-08T05:33:33;99360.75;;;13.22;100.00
63903;BME280;50072;50.678;13.938;2023-08-08T05:35:59;99364.28;;;13.24;100.00
63903;BME280;50072;50.678;13.938;2023-08-08T05:38:25;99351.09;;;13.18;100.00
63903;BME280;50072;50.678;13.938;2023-08-08T05:40:50;99353.22;;;13.10;100.00
63903;BME280;50072;50.678;13.938;2023-08-08T05:43:17;99356.72;;;13.12;100.00
63903;BME280;50072;50.678;13.938;2023-08-08T05:45:44;99355.28;;;13.25;100.00
63903;BME280;50072;50.678;13.938;2023-08-08T05:48:10;99357.41;;;13.39;100.00
63903;BME280;50072;50.678;13.938;2023-08-08T05:50:40;99348.78;;;13.53;100.00
63903;BME280;50072;50.678;13.938;2023-08-08T05:53:06;99356.47;;;13.62;100.00
63903;BME280;50072;50.678;13.938;2023-08-08T05:55:32;99357.94;;;13.70;100.00
63903;BME280;50072;50.678;13.938;2023-08-08T05:58:07;99356.88;;;13.74;100.00
63903;BME280;50072;50.678;13.938;2023-08-08T06:00:40;99359.50;;;13.75;100.00
63903;BME280;50072;50.678;13.938;2023-08-08T06:03:12;99355.13;;;13.73;100.00
63903;BME280;50072;50.678;13.938;2023-08-08T06:05:37;99353.44;;;13.70;100.00
63903;BME280;50072;50.678;13.938;2023-08-08T06:08:04;99359.59;;;13.72;100.00
63903;BME280;50072;50.678;13.938;2023-08-08T06:10:33;99366.47;;;13.79;100.00
63903;BME280;50072;50.678;13.938;2023-08-08T06:13:00;99363.41;;;13.68;100.00
63903;BME280;50072;50.678;13.938;2023-08-08T06:15:32;99372.88;;;13.77;100.00
63903;BME280;50072;50.678;13.938;2023-08-08T06:17:59;99363.59;;;13.84;100.00
63903;BME280;50072;50.678;13.938;2023-08-08T06:20:25;99376.78;;;13.90;100.00
63903;BME280;50072;50.678;13.938;2023-08-08T06:22:51;99369.56;;;13.91;100.00
63903;BME280;50072;50.678;13.938;2023-08-08T06:25:17;99370.94;;;14.01;100.00
63903;BME280;50072;50.678;13.938;2023-08-08T06:27:43;99364.88;;;14.17;100.00
63903;BME280;50072;50.678;13.938;2023-08-08T06:30:09;99364.59;;;14.23;100.00
63903;BME280;50072;50.678;13.938;2023-08-08T06:32:35;99369.91;;;14.24;100.00
63903;BME280;50072;50.678;13.938;2023-08-08T06:35:00;99361.97;;;14.21;100.00
63903;BME280;50072;50.678;13.938;2023-08-08T06:37:26;99356.66;;;14.20;100.00
63903;BME280;50072;50.678;13.938;2023-08-08T06:39:52;99364.38;;;14.27;100.00
63903;BME280;50072;50.678;13.938;2023-08-08T06:42:18;99363.44;;;14.28;100.00
63903;BME280;50072;50.678;13.938;2023-08-08T06:44:44;99358.59;;;14.37;100.00
63903;BME280;50072;50.678;13.938;2023-08-08T06:47:11;99362.88;;;14.41;100.00
63903;BME280;50072;50.678;13.938;2023-08-08T06:49:37;99365.94;;;14.52;100.00
63903;BME280;50072;50.678;13.938;2023-08-08T06:52:04;99363.91;;;14.57;100.00
63903;BME280;50072;50.678;13.938;2023-08-08T06:54:31;99370.25;;;14.77;100.00
63903;BME280;50072;50.678;13.938;2023-08-08T06:56:57;99361.84;;;14.83;100.00
63903;BME280;50072;50.678;13.938;2023-08-08T06:59:23;99363.47;;;14.87;100.00
63903;BME280;50072;50.678;13.938;2023-08-08T07:01:50;99367.16;;;14.84;100.00
63903;BME280;50072;50.678;13.938;2023-08-08T07:04:16;99367.03;;;14.69;100.00
63903;BME280;50072;50.678;13.938;2023-08-08T07:06:43;99364.09;;;14.73;100.00
63903;BME280;50072;50.678;13.938;2023-08-08T07:09:10;99370.75;;;14.85;100.00
63903;BME280;50072;50.678;13.938;2023-08-08T07:11:37;99360.34;;;14.96;100.00
63903;BME280;50072;50.678;13.938;2023-08-08T07:14:03;99352.44;;;15.11;99.13
63903;BME280;50072;50.678;13.938;2023-08-08T07:16:29;99357.75;;;15.12;98.66
63903;BME280;50072;50.678;13.938;2023-08-08T07:18:54;99355.50;;;15.22;99.23
63903;BME280;50072;50.678;13.938;2023-08-08T07:21:20;99356.94;;;15.29;98.64
63903;BME280;50072;50.678;13.938;2023-08-08T07:23:46;99350.28;;;15.36;99.52
63903;BME280;50072;50.678;13.938;2023-08-08T07:26:12;99357.03;;;15.45;97.05
63903;BME280;50072;50.678;13.938;2023-08-08T07:28:39;99344.66;;;15.59;96.76
63903;BME280;50072;50.678;13.938;2023-08-08T07:31:05;99349.53;;;15.69;95.35
63903;BME280;50072;50.678;13.938;2023-08-08T07:33:31;99353.34;;;15.83;92.89
63903;BME280;50072;50.678;13.938;2023-08-08T07:35:57;99348.03;;;15.99;94.41
63903;BME280;50072;50.678;13.938;2023-08-08T07:38:22;99349.53;;;16.04;91.80
63903;BME280;50072;50.678;13.938;2023-08-08T07:40:49;99346.66;;;16.25;90.64
63903;BME280;50072;50.678;13.938;2023-08-08T07:43:14;99363.84;;;16.07;90.68
63903;BME280;50072;50.678;13.938;2023-08-08T07:45:42;99360.31;;;16.04;92.21
63903;BME280;50072;50.678;13.938;2023-08-08T07:48:08;99355.59;;;15.92;88.20
63903;BME280;50072;50.678;13.938;2023-08-08T07:50:34;99356.78;;;15.86;87.52
63903;BME280;50072;50.678;13.938;2023-08-08T07:52:59;99357.28;;;15.76;88.67
63903;BME280;50072;50.678;13.938;2023-08-08T07:55:25;99358.56;;;15.68;89.72
63903;BME280;50072;50.678;13.938;2023-08-08T07:57:52;99356.72;;;15.69;92.47
63903;BME280;50072;50.678;13.938;2023-08-08T08:00:19;99353.78;;;15.56;91.83
63903;BME280;50072;50.678;13.938;2023-08-08T08:02:46;99355.88;;;15.68;90.95
63903;BME280;50072;50.678;13.938;2023-08-08T08:05:12;99369.34;;;15.68;93.31
63903;BME280;50072;50.678;13.938;2023-08-08T08:07:39;99357.09;;;15.80;92.45
63903;BME280;50072;50.678;13.938;2023-08-08T08:10:08;99358.28;;;16.10;93.52
63903;BME280;50072;50.678;13.938;2023-08-08T08:12:34;99356.25;;;16.31;90.38
63903;BME280;50072;50.678;13.938;2023-08-08T08:15:01;99341.72;;;16.33;91.68
63903;BME280;50072;50.678;13.938;2023-08-08T08:17:27;99341.19;;;16.27;91.00
63903;BME280;50072;50.678;13.938;2023-08-08T08:19:57;99334.97;;;16.25;92.65
63903;BME280;50072;50.678;13.938;2023-08-08T08:22:23;99346.22;;;15.99;90.38
63903;BME280;50072;50.678;13.938;2023-08-08T08:24:49;99343.06;;;15.54;93.90
63903;BME280;50072;50.678;13.938;2023-08-08T08:27:15;99341.09;;;15.58;93.80
63903;BME280;50072;50.678;13.938;2023-08-08T08:29:41;99338.41;;;15.76;94.89
63903;BME280;50072;50.678;13.938;2023-08-08T08:32:07;99335.00;;;15.72;94.75
63903;BME280;50072;50.678;13.938;2023-08-08T08:34:33;99340.25;;;15.93;93.03
63903;BME280;50072;50.678;13.938;2023-08-08T08:36:58;99341.69;;;16.00;91.57
63903;BME280;50072;50.678;13.938;2023-08-08T08:39:24;99335.72;;;15.76;94.40
63903;BME280;50072;50.678;13.938;2023-08-08T08:41:54;99322.56;;;15.87;92.57
63903;BME280;50072;50.678;13.938;2023-08-08T08:44:25;99323.13;;;15.94;95.35
63903;BME280;50072;50.678;13.938;2023-08-08T08:46:52;99314.81;;;15.81;93.17
63903;BME280;50072;50.678;13.938;2023-08-08T08:49:21;99326.13;;;15.87;91.28
63903;BME280;50072;50.678;13.938;2023-08-08T08:51:48;99329.47;;;15.93;92.14
63903;BME280;50072;50.678;13.938;2023-08-08T08:54:14;99338.28;;;15.96;89.46
63903;BME280;50072;50.678;13.938;2023-08-08T08:56:41;99342.41;;;16.03;88.91
63903;BME280;50072;50.678;13.938;2023-08-08T08:59:13;99336.50;;;16.13;88.71
63903;BME280;50072;50.678;13.938;2023-08-08T09:01:39;99336.97;;;16.21;87.36
63903;BME280;50072;50.678;13.938;2023-08-08T09:04:07;99341.72;;;16.33;87.07
63903;BME280;50072;50.678;13.938;2023-08-08T09:06:39;99332.75;;;16.49;85.71
63903;BME280;50072;50.678;13.938;2023-08-08T09:09:07;99337.94;;;16.53;84.94
63903;BME280;50072;50.678;13.938;2023-08-08T09:11:33;99332.09;;;16.61;85.06
63903;BME280;50072;50.678;13.938;2023-08-08T09:14:01;99335.81;;;16.92;85.06
63903;BME280;50072;50.678;13.938;2023-08-08T09:16:29;99336.34;;;17.15;84.55
63903;BME280;50072;50.678;13.938;2023-08-08T09:18:57;99335.53;;;17.29;80.61
63903;BME280;50072;50.678;13.938;2023-08-08T09:21:24;99336.59;;;17.26;77.46
63903;BME280;50072;50.678;13.938;2023-08-08T09:23:50;99332.66;;;17.16;75.23
63903;BME280;50072;50.678;13.938;2023-08-08T09:26:16;99333.00;;;17.41;75.72
63903;BME280;50072;50.678;13.938;2023-08-08T09:28:42;99334.91;;;17.39;75.91
63903;BME280;50072;50.678;13.938;2023-08-08T09:31:08;99331.44;;;17.37;77.10
63903;BME280;50072;50.678;13.938;2023-08-08T09:33:34;99330.69;;;17.50;75.65
63903;BME280;50072;50.678;13.938;2023-08-08T09:36:00;99330.53;;;17.37;73.96
63903;BME280;50072;50.678;13.938;2023-08-08T09:38:26;99345.03;;;17.20;73.97
63903;BME280;50072;50.678;13.938;2023-08-08T09:40:52;99337.91;;;17.03;75.35
63903;BME280;50072;50.678;13.938;2023-08-08T09:43:18;99327.81;;;16.90;75.38
63903;BME280;50072;50.678;13.938;2023-08-08T09:45:43;99332.06;;;17.11;76.90
63903;BME280;50072;50.678;13.938;2023-08-08T09:48:10;99324.88;;;17.41;74.72
63903;BME280;50072;50.678;13.938;2023-08-08T09:50:36;99321.22;;;17.73;73.84
63903;BME280;50072;50.678;13.938;2023-08-08T09:53:02;99323.94;;;18.18;69.95
63903;BME280;50072;50.678;13.938;2023-08-08T09:55:29;99321.91;;;18.36;67.19
63903;BME280;50072;50.678;13.938;2023-08-08T09:57:57;99316.47;;;18.79;67.96
63903;BME280;50072;50.678;13.938;2023-08-08T10:00:24;99311.25;;;18.76;64.60
63903;BME280;50072;50.678;13.938;2023-08-08T10:02:54;99306.69;;;18.76;64.86
63903;BME280;50072;50.678;13.938;2023-08-08T10:05:21;99312.63;;;19.10;63.83
63903;BME280;50072;50.678;13.938;2023-08-08T10:07:47;99311.47;;;19.14;63.03
63903;BME280;50072;50.678;13.938;2023-08-08T10:10:13;99303.69;;;19.23;62.49
63903;BME280;50072;50.678;13.938;2023-08-08T10:12:39;99307.88;;;19.41;61.62
63903;BME280;50072;50.678;13.938;2023-08-08T10:15:09;99297.63;;;19.32;61.46
63903;BME280;50072;50.678;13.938;2023-08-08T10:17:39;99299.03;;;19.65;58.95
63903;BME280;50072;50.678;13.938;2023-08-08T10:20:08;99300.84;;;19.92;59.72
63903;BME280;50072;50.678;13.938;2023-08-08T10:22:37;99292.34;;;19.83;60.49
63903;BME280;50072;50.678;13.938;2023-08-08T10:25:07;99291.84;;;19.51;61.29
63903;BME280;50072;50.678;13.938;2023-08-08T10:27:35;99290.31;;;19.47;60.44
63903;BME280;50072;50.678;13.938;2023-08-08T10:30:05;99291.69;;;18.71;61.15
63903;BME280;50072;50.678;13.938;2023-08-08T10:32:40;99286.69;;;18.36;62.03
63903;BME280;50072;50.678;13.938;2023-08-08T10:35:08;99286.31;;;18.13;64.22
63903;BME280;50072;50.678;13.938;2023-08-08T10:37:35;99288.91;;;18.00;63.46
63903;BME280;50072;50.678;13.938;2023-08-08T10:40:02;99294.63;;;17.80;65.15
63903;BME280;50072;50.678;13.938;2023-08-08T10:42:32;99292.41;;;17.72;66.25
63903;BME280;50072;50.678;13.938;2023-08-08T10:45:01;99302.59;;;17.52;66.88
63903;BME280;50072;50.678;13.938;2023-08-08T10:47:33;99290.72;;;17.55;67.22
63903;BME280;50072;50.678;13.938;2023-08-08T10:55:38;99283.88;;;17.64;67.96
63903;BME280;50072;50.678;13.938;2023-08-08T10:58:09;99279.16;;;17.67;69.42
63903;BME280;50072;50.678;13.938;2023-08-08T11:00:36;99271.41;;;17.75;68.40
63903;BME280;50072;50.678;13.938;2023-08-08T11:03:03;99266.94;;;17.90;66.88
63903;BME280;50072;50.678;13.938;2023-08-08T11:05:33;99259.31;;;18.11;67.39
63903;BME280;50072;50.678;13.938;2023-08-08T11:08:00;99261.22;;;18.38;68.50
63903;BME280;50072;50.678;13.938;2023-08-08T11:10:26;99254.28;;;18.49;66.56
63903;BME280;50072;50.678;13.938;2023-08-08T11:13:05;99252.94;;;18.41;64.96
63903;BME280;50072;50.678;13.938;2023-08-08T11:15:36;99260.84;;;18.44;64.12
63903;BME280;50072;50.678;13.938;2023-08-08T11:18:02;99267.91;;;18.47;65.92
63903;BME280;50072;50.678;13.938;2023-08-08T11:20:33;99266.94;;;18.34;65.60
63903;BME280;50072;50.678;13.938;2023-08-08T11:22:59;99263.00;;;18.25;64.97
63903;BME280;50072;50.678;13.938;2023-08-08T11:25:28;99270.72;;;18.17;67.69
63903;BME280;50072;50.678;13.938;2023-08-08T11:27:56;99281.84;;;18.12;70.62
63903;BME280;50072;50.678;13.938;2023-08-08T11:30:24;99301.09;;;17.93;73.88
63903;BME280;50072;50.678;13.938;2023-08-08T11:32:56;99308.66;;;17.72;75.87
63903;BME280;50072;50.678;13.938;2023-08-08T11:35:23;99304.00;;;17.43;83.76
63903;BME280;50072;50.678;13.938;2023-08-08T11:37:51;99276.94;;;17.43;80.05
63903;BME280;50072;50.678;13.938;2023-08-08T11:40:18;99264.38;;;19.16;77.72
63903;BME280;50072;50.678;13.938;2023-08-08T11:42:45;99268.88;;;19.70;75.33
63903;BME280;50072;50.678;13.938;2023-08-08T11:45:15;99255.19;;;20.48;72.29
63903;BME280;50072;50.678;13.938;2023-08-08T11:47:40;99265.34;;;22.03;62.63
63903;BME280;50072;50.678;13.938;2023-08-08T11:50:08;99254.81;;;25.10;51.64
63903;BME280;50072;50.678;13.938;2023-08-08T11:52:39;99244.81;;;26.16;49.59
63903;BME280;50072;50.678;13.938;2023-08-08T11:55:06;99251.88;;;26.94;43.89
63903;BME280;50072;50.678;13.938;2023-08-08T11:57:35;99244.81;;;29.87;36.98
63903;BME280;50072;50.678;13.938;2023-08-08T12:00:06;99244.13;;;31.37;34.62
63903;BME280;50072;50.678;13.938;2023-08-08T12:02:34;99236.69;;;32.37;32.50
63903;BME280;50072;50.678;13.938;2023-08-08T12:05:08;99243.19;;;33.84;29.56
63903;BME280;50072;50.678;13.938;2023-08-08T12:07:38;99240.03;;;33.29;27.80
63903;BME280;50072;50.678;13.938;2023-08-08T12:10:20;99240.91;;;34.51;27.07
63903;BME280;50072;50.678;13.938;2023-08-08T12:12:51;99238.09;;;32.93;28.24
63903;BME280;50072;50.678;13.938;2023-08-08T12:15:19;99219.38;;;33.53;27.81
63903;BME280;50072;50.678;13.938;2023-08-08T12:17:46;99217.25;;;30.52;33.07
63903;BME280;50072;50.678;13.938;2023-08-08T12:20:14;99211.59;;;29.05;34.19
63903;BME280;50072;50.678;13.938;2023-08-08T12:22:41;99207.41;;;27.27;36.92
63903;BME280;50072;50.678;13.938;2023-08-08T12:25:07;99197.75;;;25.54;40.83
63903;BME280;50072;50.678;13.938;2023-08-08T12:27:34;99199.88;;;25.80;40.92
63903;BME280;50072;50.678;13.938;2023-08-08T12:30:00;99196.44;;;25.58;40.98
63903;BME280;50072;50.678;13.938;2023-08-08T12:32:26;99194.28;;;28.35;37.20
63903;BME280;50072;50.678;13.938;2023-08-08T12:34:55;99192.88;;;30.95;31.95
63903;BME280;50072;50.678;13.938;2023-08-08T12:37:23;99194.94;;;33.42;29.75
63903;BME280;50072;50.678;13.938;2023-08-08T12:39:49;99194.06;;;33.84;27.25
63903;BME280;50072;50.678;13.938;2023-08-08T12:42:16;99185.03;;;34.39;26.65
63903;BME280;50072;50.678;13.938;2023-08-08T12:44:42;99180.41;;;34.95;26.73
63903;BME280;50072;50.678;13.938;2023-08-08T12:47:08;99168.13;;;35.51;24.98
63903;BME280;50072;50.678;13.938;2023-08-08T12:49:34;99174.03;;;34.52;26.89
63903;BME280;50072;50.678;13.938;2023-08-08T12:52:00;99166.47;;;32.00;28.51
63903;BME280;50072;50.678;13.938;2023-08-08T12:54:25;99155.00;;;29.43;31.66
63903;BME280;50072;50.678;13.938;2023-08-08T12:56:51;99160.44;;;27.02;35.35